createdAt,value
2022-12-17T00:01:09.968Z,5.04
2022-12-17T00:03:57.807Z,5.05
2022-12-17T00:06:45.767Z,5.04
2022-12-17T00:09:33.483Z,5.04
2022-12-17T00:12:21.151Z,5.03
2022-12-17T00:15:08.599Z,5.03
2022-12-17T00:17:56.082Z,5.03
2022-12-17T00:20:44.469Z,5.03
2022-12-17T00:23:34.685Z,5.03
2022-12-17T00:26:22.921Z,5.03
2022-12-17T00:29:10.857Z,5.02
2022-12-17T00:31:58.465Z,5.01
2022-12-17T00:34:45.247Z,4.99
2022-12-17T00:37:33.021Z,4.99
2022-12-17T00:40:20.848Z,4.97
2022-12-17T00:43:18.695Z,4.97
2022-12-17T00:46:09.873Z,4.96
2022-12-17T00:48:58.431Z,4.94
2022-12-17T00:51:51.911Z,4.92
2022-12-17T00:54:39.652Z,4.91
2022-12-17T00:57:27.222Z,4.88
2022-12-17T01:00:14.989Z,4.87
2022-12-17T01:03:02.866Z,4.84
2022-12-17T01:05:50.502Z,4.83
2022-12-17T01:08:37.952Z,4.81
2022-12-17T01:11:26.949Z,4.80
2022-12-17T01:14:14.783Z,4.78
2022-12-17T01:17:02.558Z,4.77
2022-12-17T01:19:50.385Z,4.76
2022-12-17T01:22:38.201Z,4.74
2022-12-17T01:25:27.985Z,4.72
2022-12-17T01:28:15.546Z,4.73
2022-12-17T01:31:03.341Z,4.70
2022-12-17T01:33:53.875Z,4.69
2022-12-17T01:36:41.304Z,4.69
2022-12-17T01:39:28.970Z,4.67
2022-12-17T01:42:25.330Z,4.67
2022-12-17T01:45:13.881Z,4.65
2022-12-17T01:48:08.490Z,4.65
2022-12-17T01:51:00.334Z,4.65
2022-12-17T01:53:53.003Z,4.63
2022-12-17T01:56:40.300Z,4.62
2022-12-17T01:59:28.832Z,4.61
2022-12-17T02:02:17.119Z,4.59
2022-12-17T02:05:05.017Z,4.58
2022-12-17T02:08:12.103Z,4.57
2022-12-17T02:11:06.096Z,4.55
2022-12-17T02:13:58.449Z,4.55
2022-12-17T02:16:53.211Z,4.55
2022-12-17T02:19:49.730Z,4.55
2022-12-17T02:22:44.872Z,4.52
2022-12-17T02:25:41.660Z,4.51
2022-12-17T02:28:29.862Z,4.49
2022-12-17T02:31:19.190Z,4.48
2022-12-17T02:34:07.986Z,4.45
2022-12-17T02:36:55.645Z,4.44
2022-12-17T02:39:43.215Z,4.45
2022-12-17T02:42:30.968Z,4.43
2022-12-17T02:45:20.427Z,4.42
2022-12-17T02:48:11.112Z,4.42
2022-12-17T02:50:58.852Z,4.39
2022-12-17T02:53:48.751Z,4.38
2022-12-17T02:56:36.712Z,4.37
2022-12-17T02:59:24.405Z,4.36
2022-12-17T03:02:17.536Z,4.35
2022-12-17T03:05:27.675Z,4.33
2022-12-17T03:08:13.192Z,4.33
2022-12-17T03:11:01.611Z,4.32
2022-12-17T03:13:49.529Z,4.30
2022-12-17T03:16:38.426Z,4.30
2022-12-17T03:19:28.018Z,4.29
2022-12-17T03:22:15.878Z,4.28
2022-12-17T03:25:03.367Z,4.26
2022-12-17T03:27:50.908Z,4.25
2022-12-17T03:30:39.261Z,4.22
2022-12-17T03:33:29.491Z,4.21
2022-12-17T03:36:16.917Z,4.20
2022-12-17T03:39:04.672Z,4.19
2022-12-17T03:41:52.142Z,4.17
2022-12-17T03:44:40.003Z,4.16
2022-12-17T03:47:27.365Z,4.16
2022-12-17T03:50:17.867Z,4.14
2022-12-17T03:53:05.500Z,4.13
2022-12-17T03:55:53.724Z,4.10
2022-12-17T03:58:41.672Z,4.10
2022-12-17T04:01:29.948Z,4.08
2022-12-17T04:04:17.963Z,4.07
2022-12-17T04:07:06.962Z,4.06
2022-12-17T04:09:54.247Z,4.03
2022-12-17T04:12:41.724Z,4.02
2022-12-17T04:15:29.864Z,4.02
2022-12-17T04:18:17.525Z,3.99
2022-12-17T04:21:05.987Z,3.98
2022-12-17T04:24:05.288Z,3.97
2022-12-17T04:26:52.825Z,3.95
2022-12-17T04:29:44.663Z,3.93
2022-12-17T04:32:35.566Z,3.90
2022-12-17T04:35:24.713Z,3.87
2022-12-17T04:38:12.250Z,3.86
2022-12-17T04:40:59.736Z,3.83
2022-12-17T04:43:47.460Z,3.83
2022-12-17T04:46:35.008Z,3.81
2022-12-17T04:49:22.947Z,3.80
2022-12-17T04:52:10.471Z,3.79
2022-12-17T04:54:58.185Z,3.79
2022-12-17T04:57:48.090Z,3.78
2022-12-17T05:00:35.996Z,3.77
2022-12-17T05:03:26.102Z,3.75
2022-12-17T05:06:14.268Z,3.72
2022-12-17T05:09:02.560Z,3.71
2022-12-17T05:11:50.659Z,3.69
2022-12-17T05:14:38.183Z,3.67
2022-12-17T05:17:26.220Z,3.67
2022-12-17T05:20:14.007Z,3.66
2022-12-17T05:23:01.619Z,3.64
2022-12-17T05:25:49.100Z,3.65
2022-12-17T05:28:36.645Z,3.64
2022-12-17T05:31:24.874Z,3.63
2022-12-17T05:34:12.235Z,3.63
2022-12-17T05:36:59.764Z,3.62
2022-12-17T05:39:47.460Z,3.62
2022-12-17T05:42:34.941Z,3.61
2022-12-17T05:45:23.736Z,3.60
2022-12-17T05:48:16.460Z,3.60
2022-12-17T05:51:07.064Z,3.59
2022-12-17T05:53:54.434Z,3.58
2022-12-17T05:56:42.027Z,3.58
2022-12-17T05:59:29.521Z,3.57
2022-12-17T06:02:17.117Z,3.55
2022-12-17T06:05:05.131Z,3.54
2022-12-17T06:07:52.463Z,3.54
2022-12-17T06:10:39.928Z,3.52
2022-12-17T06:13:27.292Z,3.52
2022-12-17T06:16:14.994Z,3.49
2022-12-17T06:19:02.807Z,3.47
2022-12-17T06:21:51.279Z,3.46
2022-12-17T06:24:42.762Z,3.45
2022-12-17T06:27:34.456Z,3.43
2022-12-17T06:30:25.121Z,3.41
2022-12-17T06:33:22.681Z,3.42
2022-12-17T06:36:18.071Z,3.42
2022-12-17T06:39:09.290Z,3.42
2022-12-17T06:42:02.302Z,3.41
2022-12-17T06:44:52.058Z,3.41
2022-12-17T06:47:39.576Z,3.42
2022-12-17T06:50:28.013Z,3.43
2022-12-17T06:53:20.352Z,3.44
2022-12-17T06:56:16.660Z,3.45
2022-12-17T06:59:04.119Z,3.48
2022-12-17T07:01:51.793Z,3.51
2022-12-17T07:04:40.819Z,3.53
2022-12-17T07:07:28.265Z,3.57
2022-12-17T07:10:15.821Z,3.60
2022-12-17T07:13:04.751Z,3.66
2022-12-17T07:15:52.991Z,3.72
2022-12-17T07:18:40.519Z,3.77
2022-12-17T07:21:28.160Z,3.86
2022-12-17T07:24:15.807Z,3.94
2022-12-17T07:27:03.988Z,4.02
2022-12-17T07:29:52.893Z,4.14
2022-12-17T07:32:40.967Z,4.25
2022-12-17T07:35:31.802Z,4.38
2022-12-17T07:38:20.863Z,4.57
2022-12-17T07:41:16.677Z,4.68
2022-12-17T07:44:05.055Z,4.84
2022-12-17T07:46:52.904Z,4.98
2022-12-17T07:49:40.606Z,5.15
2022-12-17T07:52:28.041Z,5.33
2022-12-17T07:55:18.406Z,5.49
2022-12-17T07:58:15.413Z,5.67
2022-12-17T08:01:04.972Z,5.89
2022-12-17T08:03:53.083Z,6.11
2022-12-17T08:06:40.648Z,6.31
2022-12-17T08:09:29.983Z,6.53
2022-12-17T08:12:17.139Z,6.74
2022-12-17T08:15:04.572Z,6.95
2022-12-17T08:17:52.570Z,7.17
2022-12-17T08:20:40.549Z,7.39
2022-12-17T08:23:28.725Z,7.62
2022-12-17T08:26:17.525Z,7.89
2022-12-17T08:29:05.307Z,8.13
2022-12-17T08:31:53.918Z,8.39
2022-12-17T08:34:41.398Z,8.63
2022-12-17T08:37:29.814Z,8.85
2022-12-17T08:40:18.001Z,9.07
2022-12-17T08:43:05.830Z,9.30
2022-12-17T08:45:55.881Z,9.48
2022-12-17T08:48:43.801Z,9.72
2022-12-17T08:51:32.088Z,9.90
2022-12-17T08:54:20.245Z,10.10
2022-12-17T08:57:07.946Z,10.25
2022-12-17T08:59:55.421Z,10.39
2022-12-17T09:02:44.133Z,10.55
2022-12-17T10:38:49.423Z,13.16
2022-12-17T10:41:43.028Z,13.13
2022-12-17T10:44:45.813Z,13.29
2022-12-17T10:47:35.892Z,13.34
2022-12-17T10:50:30.887Z,13.40
2022-12-17T10:53:20.310Z,13.47
2022-12-17T10:56:10.948Z,13.61
2022-12-17T11:16:14.978Z,13.67
2022-12-17T11:21:54.575Z,13.66
2022-12-17T11:24:46.343Z,13.68
2022-12-17T11:27:39.960Z,13.62
2022-12-17T11:30:30.945Z,13.73
2022-12-17T11:33:29.049Z,13.61
2022-12-17T11:36:32.575Z,13.58
2022-12-17T19:09:35.103Z,8.02
2022-12-17T20:59:33.434Z,7.92
2022-12-17T21:02:03.736Z,7.91
2022-12-17T21:04:33.291Z,7.92
2022-12-17T21:07:02.726Z,7.91
2022-12-17T21:09:32.249Z,7.89
2022-12-17T21:12:01.640Z,7.89
2022-12-17T21:14:35.517Z,7.88
2022-12-17T23:37:52.228Z,5.74
2022-12-17T23:40:22.358Z,5.72
2022-12-17T23:42:51.972Z,5.71
2022-12-17T23:45:21.360Z,5.69
2022-12-17T23:47:50.820Z,5.68
2022-12-17T23:50:20.236Z,5.68
2022-12-17T23:52:49.823Z,5.66
